Catàleg de serveis del Meteocat
Campanya meteocatpedra

Dades de l'estació automàtica Alcarràs

?
?
Resum diari 22:00 TU
Dades diàries de l'estació meteorològica
Temperatura mitjana 14.3 °C
Temperatura màxima 19.9 °C 14:52 TU
Temperatura mínima 7.6 °C 1:39 TU
Humitat relativa mitjana 68%
Precipitació acumulada 0.0 mm
Ratxa màxima del vent (2 m) 28.1 km/h - 60º 19:48 TU

El tram horari està expressat en Temps Universal (TU). Cal sumar una hora en horari d'hivern i dues en horari d'estiu per passar a l'hora oficial.

Alcarràs

Metadades estació meteorol´gica
Municipi Alcarràs
Comarca Segrià
Altitud 122 m
Data alta 31.07.2013
Estat actual Operativa
Dades de període
Període
TU
TM
°C
TX
°C
TN
°C
HRM
%
PPT
mm
VVM (2 m)
km/h
DVM (2 m)
graus
VVX (2 m)
km/h
00:00 - 00:30 10.1 10.7 9.3 88 0.0 0.7 95 2.2
00:30 - 01:00 9.1 9.3 8.9 99 0.0 0.0 42 1.8
01:00 - 01:30 8.2 9.2 7.6 100 0.0 0.7 4 3.6
01:30 - 02:00 7.8 8.0 7.6 100 0.0 1.8 9 3.6
02:00 - 02:30 8.3 8.7 7.9 100 0.0 2.2 29 5.0
02:30 - 03:00 8.4 8.7 8.1 100 0.0 1.1 44 5.0
03:00 - 03:30 8.2 8.8 8.0 100 0.0 1.8 6 4.0
03:30 - 04:00 8.4 8.6 8.3 100 0.0 0.4 354 2.2
04:00 - 04:30 8.9 9.9 8.3 100 0.0 1.8 58 6.5
04:30 - 05:00 9.5 9.9 9.1 99 0.0 1.4 83 5.4
05:00 - 05:30 8.5 9.1 8.1 100 0.0 0.7 206 2.5
05:30 - 06:00 8.3 8.5 8.0 100 0.0 0.7 300 2.9
06:00 - 06:30 8.2 8.8 7.9 100 0.0 1.1 30 5.0
06:30 - 07:00 9.4 10.5 8.8 100 0.0 0.4 167 3.6
07:00 - 07:30 11.8 13.0 10.5 90 0.0 3.2 53 10.4
07:30 - 08:00 13.2 13.6 12.9 81 0.0 1.8 220 4.7
08:00 - 08:30 12.6 12.9 12.4 84 0.0 5.0 50 14.0
08:30 - 09:00 13.2 13.8 12.9 78 0.0 5.4 57 13.0
09:00 - 09:30 14.3 14.8 13.8 70 0.0 7.2 54 19.4
09:30 - 10:00 15.0 15.3 14.8 57 0.0 9.4 52 21.2
10:00 - 10:30 15.4 15.7 15.2 50 0.0 9.0 61 23.0
10:30 - 11:00 15.9 16.2 15.7 53 0.0 9.0 65 24.1
11:00 - 11:30 16.5 16.6 16.3 54 0.0 11.9 64 27.0
11:30 - 12:00 16.9 17.0 16.6 54 0.0 10.4 54 26.6
12:00 - 12:30 17.3 17.8 17.0 52 0.0 9.4 55 19.4
12:30 - 13:00 18.0 18.3 17.8 48 0.0 7.9 61 19.8
13:00 - 13:30 18.5 18.7 18.3 47 0.0 8.3 61 18.4
13:30 - 14:00 19.1 19.5 18.7 46 0.0 6.8 74 20.5
14:00 - 14:30 19.6 19.7 19.5 41 0.0 7.2 79 21.6
14:30 - 15:00 19.8 19.9 19.6 41 0.0 7.2 78 25.2
15:00 - 15:30 19.7 19.9 19.5 44 0.0 6.1 84 24.5
15:30 - 16:00 19.2 19.4 19.1 46 0.0 7.2 76 18.0
16:00 - 16:30 18.9 19.1 18.8 49 0.0 8.3 73 23.8
16:30 - 17:00 18.6 18.8 18.5 49 0.0 8.3 73 24.8
17:00 - 17:30 18.5 18.6 18.4 49 0.0 9.7 77 26.3
17:30 - 18:00 18.1 18.5 17.8 51 0.0 7.6 66 20.5
18:00 - 18:30 17.7 17.8 17.5 52 0.0 6.8 75 23.4
18:30 - 19:00 17.5 17.7 17.3 51 0.0 5.0 84 19.8
19:00 - 19:30 17.4 17.5 17.2 52 0.0 6.8 84 21.2
19:30 - 20:00 17.2 17.4 17.0 52 0.0 7.2 82 28.1
20:00 - 20:30 16.8 17.1 16.6 47 0.0 7.9 75 20.2
20:30 - 21:00 16.7 16.8 16.7 45 0.0 10.8 68 26.3
21:00 - 21:30 16.5 16.7 16.3 48 0.0 9.4 56 22.3
21:30 - 22:00 15.7 16.3 15.3 52 0.0 6.1 31 15.5
22:00 - 22:30 15.4 15.6 15.2 50 0.0 6.8 51 17.3

Les dades en taronja només han passat un control de qualitat automàtic. Resta pendent la seva validació definitiva.